createdAt,value
2022-10-07T00:02:33.734Z,4.20
2022-10-07T00:07:35.754Z,3.90
2022-10-07T00:12:37.523Z,2.90
2022-10-07T00:17:39.316Z,3.37
2022-10-07T00:22:41.057Z,3.00
2022-10-07T00:27:42.964Z,3.40
2022-10-07T00:32:45.030Z,3.10
2022-10-07T00:37:47.116Z,3.10
2022-10-07T00:42:48.867Z,3.47
2022-10-07T00:47:51.593Z,3.03
2022-10-07T00:52:57.691Z,3.47
2022-10-07T00:58:01.520Z,4.30
2022-10-07T01:03:03.162Z,3.10
2022-10-07T01:08:07.112Z,2.73
2022-10-07T01:13:14.693Z,3.50
2022-10-07T01:18:55.360Z,3.73
2022-10-07T01:24:27.348Z,3.30
2022-10-07T01:29:35.576Z,3.03
2022-10-07T01:34:37.287Z,2.90
2022-10-07T01:39:42.363Z,3.43
2022-10-07T01:44:44.699Z,3.03
2022-10-07T01:49:46.676Z,3.30
2022-10-07T01:54:59.077Z,3.70
2022-10-07T02:00:10.635Z,3.73
2022-10-07T02:05:31.251Z,2.90
2022-10-07T02:10:37.060Z,3.23
2022-10-07T02:15:47.879Z,3.20
2022-10-07T02:20:50.521Z,3.50
2022-10-07T02:25:52.404Z,3.43
2022-10-07T02:30:56.110Z,3.10
2022-10-07T02:36:07.318Z,2.80
2022-10-07T02:41:31.139Z,3.13
2022-10-07T02:46:42.316Z,3.00
2022-10-07T02:51:50.303Z,3.50
2022-10-07T02:56:52.086Z,3.37
2022-10-07T03:01:55.805Z,3.40
2022-10-07T03:06:58.734Z,3.00
2022-10-07T03:12:00.666Z,2.73
2022-10-07T03:17:02.954Z,2.70
2022-10-07T03:22:05.653Z,2.97
2022-10-07T03:27:09.530Z,3.10
2022-10-07T03:32:15.009Z,3.20
2022-10-07T03:37:17.441Z,3.27
2022-10-07T03:42:20.922Z,3.03
2022-10-07T03:47:22.979Z,3.30
2022-10-07T03:52:24.835Z,2.70
2022-10-07T03:57:47.087Z,3.20
2022-10-07T04:02:49.360Z,3.47
2022-10-07T04:07:52.513Z,2.90
2022-10-07T04:12:55.756Z,3.20
2022-10-07T04:17:58.521Z,3.40
2022-10-07T04:23:01.029Z,3.23
2022-10-07T04:28:07.257Z,3.13
2022-10-07T04:33:10.738Z,3.60
2022-10-07T04:38:13.192Z,2.90
2022-10-07T04:43:20.545Z,4.07
2022-10-07T04:48:27.632Z,3.83
2022-10-07T04:53:29.971Z,4.90
2022-10-07T04:58:31.810Z,4.17
2022-10-07T05:03:36.092Z,3.00
2022-10-07T05:08:37.831Z,2.80
2022-10-07T05:13:41.011Z,2.30
2022-10-07T05:18:42.981Z,2.70
2022-10-07T05:23:47.267Z,3.23
2022-10-07T05:28:53.858Z,3.20
2022-10-07T05:34:02.059Z,2.93
2022-10-07T05:39:03.992Z,3.93
2022-10-07T05:44:27.286Z,3.20
2022-10-07T05:49:32.664Z,3.00
2022-10-07T05:54:34.715Z,2.70
2022-10-07T05:59:37.366Z,3.20
2022-10-07T06:04:39.201Z,3.57
2022-10-07T06:09:59.548Z,3.37
2022-10-07T06:15:01.286Z,3.00
2022-10-07T06:20:03.029Z,3.20
2022-10-07T06:25:05.157Z,2.90
2022-10-07T06:30:08.164Z,2.70
2022-10-07T06:35:09.949Z,3.90
2022-10-07T06:40:11.937Z,3.10
2022-10-07T06:45:14.370Z,3.83
2022-10-07T06:50:16.283Z,3.53
2022-10-07T06:55:18.363Z,4.70
2022-10-07T07:00:20.398Z,3.37
2022-10-07T07:05:22.764Z,3.10
2022-10-07T07:10:25.548Z,3.20
2022-10-07T07:15:28.416Z,3.63
2022-10-07T07:20:35.728Z,3.30
2022-10-07T07:25:39.044Z,3.43
2022-10-07T07:30:40.856Z,3.67
2022-10-07T07:35:44.850Z,3.57
2022-10-07T07:40:46.998Z,3.87
2022-10-07T07:45:49.159Z,4.83
2022-10-07T07:50:50.933Z,3.67
2022-10-07T07:55:56.353Z,3.13
2022-10-07T08:01:06.842Z,3.10
2022-10-07T08:06:09.628Z,2.80
2022-10-07T08:11:19.311Z,3.30
2022-10-07T08:16:23.474Z,3.00
2022-10-07T08:21:27.382Z,2.50
2022-10-07T08:26:33.553Z,2.80
2022-10-07T08:31:37.233Z,2.60
2022-10-07T08:36:39.648Z,3.10
2022-10-07T08:41:45.943Z,3.30
2022-10-07T08:47:18.114Z,2.97
2022-10-07T08:52:25.619Z,2.53
2022-10-07T08:57:37.277Z,2.60
2022-10-07T09:02:55.172Z,3.40
2022-10-07T09:07:58.020Z,3.03
2022-10-07T09:13:21.328Z,2.87
2022-10-07T09:18:39.165Z,2.60
2022-10-07T09:23:40.781Z,2.87
2022-10-07T09:28:42.441Z,1.93
2022-10-07T09:33:45.841Z,2.20
2022-10-07T09:38:49.698Z,2.47
2022-10-07T09:43:53.867Z,2.20
2022-10-07T09:48:55.528Z,2.90
2022-10-07T09:54:04.495Z,1.77
2022-10-07T09:59:19.037Z,2.40
2022-10-07T10:04:24.853Z,2.60
2022-10-07T10:09:26.470Z,2.60
2022-10-07T10:14:48.670Z,2.30
2022-10-07T10:19:50.403Z,2.53
2022-10-07T10:25:10.657Z,2.20
2022-10-07T10:30:20.770Z,2.63
2022-10-07T10:35:28.268Z,3.10
2022-10-07T10:40:41.820Z,2.60
2022-10-07T10:46:11.449Z,2.50
2022-10-07T10:51:32.244Z,2.60
2022-10-07T10:56:48.172Z,2.90
2022-10-07T11:02:14.854Z,2.47
2022-10-07T11:07:35.862Z,2.37
2022-10-07T11:12:39.942Z,2.33
2022-10-07T11:17:41.697Z,2.17
2022-10-07T11:22:47.834Z,2.23
2022-10-07T11:27:50.598Z,2.40
2022-10-07T11:33:08.211Z,2.30
2022-10-07T11:38:09.678Z,2.70
2022-10-07T11:43:40.901Z,3.50
2022-10-07T11:49:00.777Z,2.17
2022-10-07T11:54:03.146Z,2.30
2022-10-07T11:59:06.424Z,2.40
2022-10-07T12:04:30.025Z,2.67
2022-10-07T12:09:53.738Z,2.23
2022-10-07T12:15:02.096Z,2.50
2022-10-07T12:20:34.874Z,2.50
2022-10-07T12:25:36.830Z,2.20
2022-10-07T12:30:42.202Z,2.43
2022-10-07T12:35:45.563Z,2.50
2022-10-07T12:41:06.641Z,2.50
2022-10-07T12:46:11.538Z,2.30
2022-10-07T12:51:19.318Z,3.50
2022-10-07T12:56:22.518Z,2.60
2022-10-07T13:01:42.947Z,2.47
2022-10-07T13:07:22.379Z,2.30
2022-10-07T13:12:37.766Z,2.17
2022-10-07T13:18:10.511Z,1.73
2022-10-07T13:23:26.799Z,2.30
2022-10-07T13:28:48.983Z,2.60
2022-10-07T13:33:51.276Z,2.27
2022-10-07T13:38:54.795Z,2.30
2022-10-07T13:43:59.362Z,2.10
2022-10-07T13:49:01.170Z,2.47
2022-10-07T13:54:04.577Z,2.33
2022-10-07T13:59:06.777Z,2.27
2022-10-07T14:04:14.403Z,2.23
2022-10-07T14:09:21.238Z,1.80
2022-10-07T14:14:26.145Z,2.13
2022-10-07T14:19:31.785Z,2.30
2022-10-07T14:24:33.467Z,1.77
2022-10-07T14:29:37.618Z,2.13
2022-10-07T14:35:01.799Z,2.10
2022-10-07T14:40:03.688Z,2.57
2022-10-07T14:45:08.116Z,2.37
2022-10-07T14:50:12.731Z,2.00
2022-10-07T14:55:24.555Z,2.30
2022-10-07T15:00:29.167Z,1.90
2022-10-07T15:05:33.517Z,3.10
2022-10-07T15:10:35.158Z,2.17
2022-10-07T15:15:43.425Z,2.20
2022-10-07T15:20:45.102Z,1.90
2022-10-07T15:25:46.799Z,1.90
2022-10-07T15:30:48.553Z,2.07
2022-10-07T15:35:50.176Z,2.60
2022-10-07T15:40:53.379Z,2.70
2022-10-07T15:46:01.121Z,2.20
2022-10-07T15:51:04.765Z,3.00
2022-10-07T15:56:07.135Z,3.00
2022-10-07T16:01:08.771Z,2.30
2022-10-07T16:06:18.322Z,3.10
2022-10-07T16:11:20.068Z,2.53
2022-10-07T16:16:23.555Z,2.47
2022-10-07T16:21:35.528Z,2.70
2022-10-07T16:26:37.463Z,3.00
2022-10-07T16:31:40.522Z,2.67
2022-10-07T16:36:45.601Z,3.20
2022-10-07T16:41:48.428Z,4.23
2022-10-07T16:46:50.205Z,3.00
2022-10-07T16:51:52.984Z,4.07
2022-10-07T16:56:54.612Z,4.93
2022-10-07T17:01:56.761Z,4.63
2022-10-07T17:06:58.571Z,5.57
2022-10-07T17:12:00.253Z,4.63
2022-10-07T17:17:03.926Z,4.00
2022-10-07T17:22:05.577Z,5.53
2022-10-07T17:27:08.846Z,6.30
2022-10-07T17:32:11.317Z,5.57
2022-10-07T17:37:13.178Z,5.57
2022-10-07T17:42:14.972Z,6.07
2022-10-07T17:47:16.635Z,4.93
2022-10-07T17:52:22.884Z,4.80
2022-10-07T17:57:27.262Z,5.80
2022-10-07T18:02:28.902Z,9.30
2022-10-07T18:07:30.560Z,8.40
2022-10-07T18:12:50.991Z,8.70
2022-10-07T18:17:52.628Z,9.47
2022-10-07T18:22:57.537Z,8.70
2022-10-07T18:28:01.773Z,8.30
2022-10-07T18:33:03.530Z,7.53
2022-10-07T18:38:05.212Z,5.60
2022-10-07T18:43:06.924Z,5.77
2022-10-07T18:48:08.547Z,4.30
2022-10-07T18:53:10.260Z,4.00
2022-10-07T18:58:11.893Z,4.60
2022-10-07T19:03:13.547Z,6.73
2022-10-07T19:08:15.171Z,6.37
2022-10-07T19:13:35.347Z,5.90
2022-10-07T19:18:38.277Z,6.10
2022-10-07T19:23:40.536Z,6.50
2022-10-07T19:28:42.335Z,6.90
2022-10-07T19:33:47.216Z,12.67
2022-10-07T19:38:52.416Z,11.50
2022-10-07T19:43:54.092Z,10.83
2022-10-07T19:48:56.855Z,10.33
2022-10-07T19:53:59.047Z,10.83
2022-10-07T19:59:11.855Z,8.77
2022-10-07T20:04:18.787Z,7.93
2022-10-07T20:09:20.594Z,7.93
2022-10-07T20:14:22.236Z,8.00
2022-10-07T20:19:23.960Z,8.63
2022-10-07T20:24:26.457Z,7.97
2022-10-07T20:29:28.226Z,8.53
2022-10-07T20:34:29.848Z,7.50
2022-10-07T20:39:49.801Z,6.30
2022-10-07T20:44:51.699Z,6.30
2022-10-07T20:49:55.453Z,6.10
2022-10-07T20:54:57.145Z,6.20
2022-10-07T20:59:58.895Z,6.40
2022-10-07T21:05:00.573Z,10.93
2022-10-07T21:10:02.221Z,6.33
2022-10-07T21:15:04.093Z,5.90
2022-10-07T21:20:07.067Z,6.30
2022-10-07T21:25:11.724Z,6.50
2022-10-07T21:30:13.475Z,6.87
2022-10-07T21:35:15.202Z,5.07
2022-10-07T21:40:16.818Z,6.70
2022-10-07T21:45:18.434Z,7.10
2022-10-07T21:50:20.031Z,7.70
2022-10-07T21:55:21.684Z,8.83
2022-10-07T22:00:23.385Z,6.93
2022-10-07T22:05:25.054Z,6.37
2022-10-07T22:10:26.808Z,5.67
2022-10-07T22:15:28.582Z,6.30
2022-10-07T22:20:30.685Z,4.90
2022-10-07T22:25:32.383Z,4.97
2022-10-07T22:30:34.017Z,4.10
2022-10-07T22:35:38.973Z,3.93
2022-10-07T22:40:40.590Z,3.97
2022-10-07T22:45:43.272Z,4.80
2022-10-07T22:50:44.915Z,4.40
2022-10-07T22:55:46.582Z,4.20
2022-10-07T23:00:50.540Z,4.60
2022-10-07T23:05:52.155Z,3.53
2022-10-07T23:10:57.568Z,3.53
2022-10-07T23:16:00.432Z,3.50
2022-10-07T23:21:02.990Z,3.23
2022-10-07T23:26:10.181Z,3.13
2022-10-07T23:31:14.249Z,4.20
2022-10-07T23:36:16.499Z,3.40
2022-10-07T23:41:20.093Z,3.50
2022-10-07T23:46:22.603Z,3.40
2022-10-07T23:51:25.736Z,3.13
2022-10-07T23:56:27.454Z,3.10
